Flight Track Log - Related Links

Times and Time Zones

All times are in EDT time to prevent confusion due to time zone crossing. See the TYR1106 flight status page for this flight to view local times or setup timezone preferences in your user account.

Time Position Orientation Groundspeed Altitude Reporting Facility
EDT Latitude Longitude Course Direction KTS MPH feet Rate Location/Type
Tue 11:11:00 AM 49.8418 8.9416 126° Southeast  Level Estimated
Tue 11:12:00 AM 49.7800 9.0737 126° Southeast  Level Estimated
Tue 11:13:00 AM 49.7180 9.2055 126° Southeast  Level Estimated
Tue 11:14:00 AM 49.6558 9.3370 126° Southeast  Level Estimated
Tue 11:15:00 AM 49.5935 9.4681 126° Southeast  Level Estimated
Tue 11:16:00 AM 49.5311 9.5989 126° Southeast  Level Estimated
Tue 11:17:00 AM 49.4685 9.7294 126° Southeast  Level Estimated
Tue 11:18:00 AM 49.4058 9.8595 127° Southeast  Level Estimated
Tue 11:19:00 AM 49.3429 9.9893 127° Southeast  Level Estimated
Tue 11:20:00 AM 49.2799 10.1187 127° Southeast  Level Estimated
Tue 11:21:00 AM 49.2167 10.2479 127° Southeast  Level Estimated
Tue 11:22:00 AM 49.1534 10.3767 127° Southeast  Level Estimated
Tue 11:23:00 AM 49.0900 10.5051 127° Southeast  Level Estimated
Tue 11:24:00 AM 49.0264 10.6333 127° Southeast  Level Estimated
Tue 11:25:00 AM 48.9627 10.7611 127° Southeast  Level Estimated
Tue 11:26:00 AM 48.8988 10.8886 127° Southeast  Level Estimated
Tue 11:27:00 AM 48.8348 11.0157 127° Southeast  Level Estimated
Tue 11:28:00 AM 48.7706 11.1426 127° Southeast  Level Estimated
Tue 11:29:00 AM 48.7063 11.2691 128° Southeast  Level Estimated
Tue 11:30:00 AM 48.6419 11.3953 128° Southeast  Level Estimated
Tue 11:31:00 AM 48.5773 11.5212 128° Southeast  Level Estimated
Tue 11:32:00 AM 48.5126 11.6467 128° Southeast  Level Estimated
Tue 11:33:00 AM 48.4478 11.7719 128° Southeast  Level Estimated
Tue 11:34:00 AM 48.3828 11.8968 128° Southeast  Level Estimated
Tue 11:35:00 AM 48.3177 12.0214 128° Southeast  Level Estimated
Tue 11:36:00 AM 48.2524 12.1457 128° Southeast  Level Estimated
Tue 11:37:00 AM 48.1870 12.2697 128° Southeast  Level Estimated
Tue 11:38:00 AM 48.1215 12.3933 128° Southeast  Level Estimated
Tue 11:39:00 AM 48.0559 12.5166 129° Southeast  Level Estimated
Tue 11:40:00 AM 47.9901 12.6396 129° Southeast  Level Estimated
Tue 11:41:00 AM 47.9242 12.7623 129° Southeast  Level Estimated
Tue 11:42:00 AM 47.8581 12.8847 129° Southeast  Level Estimated
Tue 11:43:00 AM 47.7933 13.0043 129° Southeast  Level Estimated
Tue 11:44:00 AM 47.7933 13.0043 27° Northeast  Level Estimated
Tue 11:45:00 AM 47.7933 13.0043 27° Northeast  Level Estimated
Tue 11:46:00 AM 47.7933 13.0043 27° Northeast  Level Estimated
Tue 11:47:00 AM 47.7933 13.0043 27° Northeast  Level Estimated
Tue 11:48:00 AM 47.7933 13.0043 27° Northeast  Level Estimated
Tue 11:49:00 AM 47.7933 13.0043 27° Northeast  Level Estimated
Tue 11:50:00 AM 47.7933 13.0043 27° Northeast  Level Estimated
Tue 11:51:00 AM 47.7933 13.0043 27° Northeast  Level Estimated

Login

Don't have an account? Register now (free) for customized features, flight alerts, and more!